Time;durP1;ratioP1;P1;durP2;ratioP2;P2;SDS_P1;SDS_P2;PMS_P1;PMS_P2;Temp;Humidity;BMP_temperature;BMP_pressure;BME280_temperature;BME280_humidity;BME280_pressure;Samples;Min_cycle;Max_cycle;Signal;HPM_P1;HPM_P2
2021/07/16 00:01:24;;;;;;;;;;;20.20;99.90;;;;;;5057461;28;19916;-53
2021/07/16 00:03:49;;;;;;;;;;;20.20;99.90;;;;;;5059495;28;20012;-56
2021/07/16 00:06:15;;;;;;;;;;;20.20;99.90;;;;;;5057310;28;20020;-55
2021/07/16 00:08:41;;;;;;;;;;;20.10;99.90;;;;;;5056951;28;19913;-53
2021/07/16 00:11:06;;;;;;;;;;;20.00;99.90;;;;;;5063803;28;20374;-55
2021/07/16 00:13:32;;;;;;;;;;;20.00;99.90;;;;;;5057501;28;19915;-52
2021/07/16 00:15:57;;;;;;;;;;;19.90;99.90;;;;;;5064089;28;19908;-57
2021/07/16 00:18:23;;;;;;;;;;;19.80;99.90;;;;;;5060527;28;19913;-53
2021/07/16 00:20:48;;;;;;;;;;;19.70;99.90;;;;;;5063589;28;20421;-56
2021/07/16 00:23:14;;;;;;;;;;;19.60;99.90;;;;;;5064115;28;19952;-54
2021/07/16 00:25:40;;;;;;;;;;;19.60;99.90;;;;;;5063895;28;19962;-55
2021/07/16 00:28:07;;;;;;;;;;;19.60;99.90;;;;;;5063124;28;20437;-52
2021/07/16 00:30:32;;;;;;;;;;;19.60;99.90;;;;;;5066091;28;19909;-54
2021/07/16 00:32:58;;;;;;;;;;;19.60;99.90;;;;;;5061807;28;19913;-53
2021/07/16 00:35:23;;;;;;;;;;;19.60;99.90;;;;;;5063359;28;19909;-57
2021/07/16 00:37:48;;;;;;;;;;;19.50;99.90;;;;;;5061705;28;19916;-54
2021/07/16 00:40:14;;;;;;;;;;;19.50;99.90;;;;;;5064096;28;19998;-55
2021/07/16 00:42:41;;;;;;;;;;;19.40;99.90;;;;;;5063789;28;19920;-52
2021/07/16 00:45:07;;;;;;;;;;;19.40;99.90;;;;;;5062468;28;19909;-52
2021/07/16 00:47:33;;;;;;;;;;;19.40;99.90;;;;;;5065302;28;19916;-56
2021/07/16 00:49:58;;;;;;;;;;;19.40;99.90;;;;;;5059316;28;19913;-54
2021/07/16 00:52:24;;;;;;;;;;;19.30;99.90;;;;;;5053569;28;19970;-56
2021/07/16 00:54:51;;;;;;;;;;;19.30;99.90;;;;;;5061286;28;19972;-54
2021/07/16 00:57:16;;;;;;;;;;;19.30;99.90;;;;;;5060229;28;20425;-54
2021/07/16 00:59:42;;;;;;;;;;;19.30;99.90;;;;;;5061557;28;19908;-52
2021/07/16 01:02:07;;;;;;;;;;;19.30;99.90;;;;;;5060774;28;19921;-54
2021/07/16 01:04:34;;;;;;;;;;;19.20;99.90;;;;;;5061913;28;20299;-54
2021/07/16 01:06:59;;;;;;;;;;;19.20;99.90;;;;;;5054290;28;20322;-55
2021/07/16 01:09:25;;;;;;;;;;;19.10;99.90;;;;;;5066330;28;19908;-54
2021/07/16 01:11:50;;;;;;;;;;;19.10;99.90;;;;;;5056929;28;19915;-52
2021/07/16 01:14:16;;;;;;;;;;;19.10;99.90;;;;;;5063327;28;19916;-53
2021/07/16 01:16:42;;;;;;;;;;;19.00;99.90;;;;;;5063086;28;19909;-54
2021/07/16 01:19:07;;;;;;;;;;;18.90;99.90;;;;;;5054954;28;20400;-56
2021/07/16 01:21:33;;;;;;;;;;;18.90;99.90;;;;;;5092139;22;19931;-48
2021/07/16 01:23:59;;;;;;;;;;;18.80;99.90;;;;;;5063016;28;19908;-50
2021/07/16 01:26:24;;;;;;;;;;;18.80;99.90;;;;;;5070980;28;19955;-51
2021/07/16 01:28:51;;;;;;;;;;;18.80;99.90;;;;;;5070837;28;19946;-52
2021/07/16 01:31:17;;;;;;;;;;;18.80;99.90;;;;;;5055453;28;19920;-51
2021/07/16 01:33:42;;;;;;;;;;;18.80;99.90;;;;;;5071139;28;20314;-53
2021/07/16 01:36:08;;;;;;;;;;;18.80;99.90;;;;;;5070620;28;19999;-48
2021/07/16 01:38:33;;;;;;;;;;;18.80;99.90;;;;;;5071506;28;19948;-48
2021/07/16 01:40:59;;;;;;;;;;;18.80;99.90;;;;;;5062750;28;19917;-53
2021/07/16 01:43:26;;;;;;;;;;;18.70;99.90;;;;;;5069946;28;19913;-56
2021/07/16 01:45:52;;;;;;;;;;;18.60;99.90;;;;;;5062326;28;20379;-48
2021/07/16 01:48:17;;;;;;;;;;;18.60;99.90;;;;;;5071214;28;19908;-52
2021/07/16 01:50:47;;;;;;;;;;;18.60;99.90;;;;;;5070591;28;19915;-48
2021/07/16 01:53:15;;;;;;;;;;;18.50;99.90;;;;;;5071093;28;19908;-53
2021/07/16 01:55:41;;;;;;;;;;;18.50;99.90;;;;;;5070541;28;19909;-54
2021/07/16 01:58:08;;;;;;;;;;;18.50;99.90;;;;;;5071067;28;19934;-49
2021/07/16 02:00:34;;;;;;;;;;;18.50;99.90;;;;;;5070506;28;19954;-53
2021/07/16 02:03:01;;;;;;;;;;;18.40;99.90;;;;;;5070770;28;19919;-50
2021/07/16 02:05:27;;;;;;;;;;;18.40;99.90;;;;;;5070424;28;19974;-50
2021/07/16 02:07:54;;;;;;;;;;;18.30;99.90;;;;;;5069356;28;20577;-46
2021/07/16 02:10:21;;;;;;;;;;;18.30;99.90;;;;;;5070862;28;20405;-52
2021/07/16 02:12:46;;;;;;;;;;;18.30;99.90;;;;;;5069192;28;19909;-51
2021/07/16 02:15:14;;;;;;;;;;;18.30;99.90;;;;;;5070306;28;20436;-47
2021/07/16 02:17:40;;;;;;;;;;;18.20;99.90;;;;;;5070378;28;19908;-51
2021/07/16 02:20:17;;;;;;;;;;;18.10;99.90;;;;;;5070135;28;20386;-53
2021/07/16 02:22:42;;;;;;;;;;;18.10;99.90;;;;;;5070304;28;19912;-49
2021/07/16 02:25:08;;;;;;;;;;;18.10;99.90;;;;;;5070170;28;20397;-49
2021/07/16 02:27:34;;;;;;;;;;;18.10;99.90;;;;;;5070454;28;19921;-53
2021/07/16 02:29:59;;;;;;;;;;;18.10;99.90;;;;;;5070281;28;19909;-50
2021/07/16 02:32:25;;;;;;;;;;;18.10;99.90;;;;;;5070418;28;20367;-50
2021/07/16 02:34:50;;;;;;;;;;;18.10;99.90;;;;;;5069951;28;20008;-51
2021/07/16 02:37:15;;;;;;;;;;;18.10;99.90;;;;;;5070401;28;19908;-49
2021/07/16 02:39:41;;;;;;;;;;;18.10;99.90;;;;;;5068601;28;19946;-48
2021/07/16 02:42:06;;;;;;;;;;;18.00;99.90;;;;;;5061590;28;19965;-49
2021/07/16 02:44:32;;;;;;;;;;;18.10;99.90;;;;;;5069981;28;20482;-51
2021/07/16 02:46:57;;;;;;;;;;;18.00;99.90;;;;;;5069927;28;19973;-53
2021/07/16 02:49:23;;;;;;;;;;;18.10;99.90;;;;;;5070068;28;20102;-48
2021/07/16 02:51:48;;;;;;;;;;;18.00;99.90;;;;;;5069800;28;19908;-51
2021/07/16 02:54:14;;;;;;;;;;;18.00;99.90;;;;;;5069948;28;20007;-46
2021/07/16 02:56:39;;;;;;;;;;;18.10;99.90;;;;;;5069784;28;19908;-52
2021/07/16 02:59:06;;;;;;;;;;;18.10;99.90;;;;;;5061802;28;19909;-50
2021/07/16 03:01:32;;;;;;;;;;;18.10;99.90;;;;;;5069680;28;20374;-51
2021/07/16 03:03:57;;;;;;;;;;;18.10;99.90;;;;;;5069771;28;19908;-51
2021/07/16 03:06:23;;;;;;;;;;;18.10;99.90;;;;;;5069806;28;20379;-52
2021/07/16 03:08:48;;;;;;;;;;;18.10;99.90;;;;;;5070052;28;19970;-49
2021/07/16 03:11:14;;;;;;;;;;;18.10;99.90;;;;;;5069646;28;19912;-49
2021/07/16 03:13:39;;;;;;;;;;;18.10;99.90;;;;;;5069861;28;19916;-50
2021/07/16 03:16:04;;;;;;;;;;;18.10;99.90;;;;;;5061028;28;19917;-51
2021/07/16 03:18:30;;;;;;;;;;;18.10;99.90;;;;;;5069657;28;19913;-52
2021/07/16 03:20:55;;;;;;;;;;;18.10;99.90;;;;;;5069309;28;19921;-51
2021/07/16 03:23:21;;;;;;;;;;;18.00;99.90;;;;;;5062279;28;19916;-52
2021/07/16 03:25:47;;;;;;;;;;;18.00;99.90;;;;;;5069511;28;19916;-53
2021/07/16 03:28:13;;;;;;;;;;;18.00;99.90;;;;;;5069669;28;19909;-49
2021/07/16 03:30:39;;;;;;;;;;;18.00;99.90;;;;;;5068627;28;19909;-53
2021/07/16 03:33:05;;;;;;;;;;;18.00;99.90;;;;;;5069231;28;19931;-60
2021/07/16 03:35:30;;;;;;;;;;;18.00;99.90;;;;;;5068879;28;20431;-51
2021/07/16 03:37:56;;;;;;;;;;;18.00;99.90;;;;;;5069855;28;20015;-52
2021/07/16 03:40:26;;;;;;;;;;;18.00;99.90;;;;;;5061286;28;20393;-53
2021/07/16 03:42:52;;;;;;;;;;;18.10;99.90;;;;;;5069538;28;19925;-53
2021/07/16 03:45:18;;;;;;;;;;;18.00;99.90;;;;;;5069170;28;20271;-49
2021/07/16 03:47:45;;;;;;;;;;;18.00;99.90;;;;;;5069703;28;19908;-51
2021/07/16 03:50:11;;;;;;;;;;;18.00;99.90;;;;;;5069839;28;19942;-49
2021/07/16 03:52:37;;;;;;;;;;;18.00;99.90;;;;;;5073363;28;19999;-51
2021/07/16 03:55:05;;;;;;;;;;;18.00;99.90;;;;;;5072667;28;20425;-55
2021/07/16 03:57:31;;;;;;;;;;;18.00;99.90;;;;;;5073406;28;20299;-48
2021/07/16 03:59:57;;;;;;;;;;;18.00;99.90;;;;;;5073462;28;19909;-51
2021/07/16 04:02:23;;;;;;;;;;;18.00;99.90;;;;;;5072984;28;19919;-52
2021/07/16 04:04:52;;;;;;;;;;;18.00;99.90;;;;;;5071458;28;20151;-49
2021/07/16 04:07:22;;;;;;;;;;;18.00;99.90;;;;;;5070444;28;19915;-49
2021/07/16 04:09:47;;;;;;;;;;;18.10;99.90;;;;;;5073126;28;19908;-55
2021/07/16 04:12:14;;;;;;;;;;;18.00;99.90;;;;;;5072745;28;19939;-51
2021/07/16 04:14:40;;;;;;;;;;;18.00;99.90;;;;;;5064085;28;19909;-52
2021/07/16 04:17:11;;;;;;;;;;;18.00;99.90;;;;;;5072792;28;19909;-49
2021/07/16 04:19:37;;;;;;;;;;;18.00;99.90;;;;;;5069393;28;19924;-54
2021/07/16 04:22:03;;;;;;;;;;;18.00;99.90;;;;;;5072255;28;19961;-49
2021/07/16 04:24:28;;;;;;;;;;;18.00;99.90;;;;;;5072480;28;20452;-52
2021/07/16 04:26:54;;;;;;;;;;;18.00;99.90;;;;;;5064417;28;19908;-52
2021/07/16 04:29:19;;;;;;;;;;;18.10;99.90;;;;;;5072965;28;19909;-49
2021/07/16 04:31:44;;;;;;;;;;;18.10;99.90;;;;;;5072528;28;19909;-50
2021/07/16 04:34:10;;;;;;;;;;;18.10;99.90;;;;;;5063908;28;19916;-52
2021/07/16 04:36:35;;;;;;;;;;;18.10;99.90;;;;;;5070784;28;20406;-55
2021/07/16 04:39:01;;;;;;;;;;;18.20;99.90;;;;;;5072693;28;19905;-53
2021/07/16 04:41:26;;;;;;;;;;;18.20;99.90;;;;;;5072166;28;19962;-51
2021/07/16 04:43:52;;;;;;;;;;;18.20;99.90;;;;;;5064082;28;19916;-50
2021/07/16 04:46:18;;;;;;;;;;;18.30;99.90;;;;;;5071982;28;20302;-49
2021/07/16 04:48:43;;;;;;;;;;;18.30;99.90;;;;;;5072293;28;19909;-51
2021/07/16 04:51:08;;;;;;;;;;;18.20;99.90;;;;;;5063638;28;19915;-52
2021/07/16 04:53:34;;;;;;;;;;;18.20;99.90;;;;;;5072091;28;19909;-53
2021/07/16 04:55:59;;;;;;;;;;;18.20;99.90;;;;;;5063616;28;19909;-50
2021/07/16 04:58:25;;;;;;;;;;;18.20;99.90;;;;;;5072298;28;19909;-58
2021/07/16 05:00:50;;;;;;;;;;;18.10;99.90;;;;;;5072390;28;19908;-54
2021/07/16 05:03:16;;;;;;;;;;;18.10;99.90;;;;;;5070062;28;19908;-51
2021/07/16 05:05:41;;;;;;;;;;;18.10;99.90;;;;;;5070180;28;19917;-54
2021/07/16 05:08:07;;;;;;;;;;;18.10;99.90;;;;;;5063853;28;19998;-52
2021/07/16 05:10:32;;;;;;;;;;;18.20;99.90;;;;;;5071886;28;20386;-49
2021/07/16 05:12:58;;;;;;;;;;;18.30;99.90;;;;;;5071809;28;19908;-54
2021/07/16 05:15:23;;;;;;;;;;;18.30;99.90;;;;;;5071715;28;19909;-54
2021/07/16 05:17:49;;;;;;;;;;;18.40;99.90;;;;;;5063338;28;20526;-51
2021/07/16 05:20:14;;;;;;;;;;;18.40;99.90;;;;;;5062970;28;19923;-51
2021/07/16 05:22:39;;;;;;;;;;;18.40;99.90;;;;;;5071499;28;20003;-55
2021/07/16 05:25:05;;;;;;;;;;;18.50;99.90;;;;;;5062925;28;19961;-55
2021/07/16 05:27:31;;;;;;;;;;;18.50;99.90;;;;;;5070448;28;19909;-56
2021/07/16 05:29:56;;;;;;;;;;;18.60;99.90;;;;;;5071613;28;19909;-50
2021/07/16 05:32:22;;;;;;;;;;;18.70;99.90;;;;;;5071533;28;19915;-53
2021/07/16 05:34:47;;;;;;;;;;;18.70;99.90;;;;;;5071106;28;19974;-53
2021/07/16 05:37:13;;;;;;;;;;;18.70;99.90;;;;;;5063181;28;19930;-53
2021/07/16 05:39:38;;;;;;;;;;;18.80;99.90;;;;;;5071533;28;19931;-58
2021/07/16 05:42:04;;;;;;;;;;;18.70;99.90;;;;;;5062785;28;19919;-54
2021/07/16 05:44:31;;;;;;;;;;;18.70;99.90;;;;;;5071031;28;19908;-51
2021/07/16 05:46:56;;;;;;;;;;;18.70;99.90;;;;;;5070977;28;20401;-50
2021/07/16 05:49:22;;;;;;;;;;;18.80;99.90;;;;;;5071190;28;19952;-52
2021/07/16 05:51:47;;;;;;;;;;;18.90;99.90;;;;;;5069426;28;20436;-52
2021/07/16 05:54:12;;;;;;;;;;;19.00;99.90;;;;;;5062648;28;19908;-52
2021/07/16 05:56:41;;;;;;;;;;;19.10;99.90;;;;;;5071066;28;20035;-57
2021/07/16 05:59:07;;;;;;;;;;;19.00;99.90;;;;;;5062853;28;19954;-52
2021/07/16 06:01:32;;;;;;;;;;;19.10;99.90;;;;;;5070814;28;19919;-51
2021/07/16 06:03:58;;;;;;;;;;;19.20;99.90;;;;;;5070665;28;20010;-47
2021/07/16 06:06:23;;;;;;;;;;;19.30;99.90;;;;;;5070787;28;19908;-49
2021/07/16 06:08:49;;;;;;;;;;;19.40;99.90;;;;;;5070893;28;19953;-49
2021/07/16 06:11:14;;;;;;;;;;;19.60;99.90;;;;;;5062558;28;20003;-53
2021/07/16 06:13:40;;;;;;;;;;;19.90;99.90;;;;;;5070712;28;20391;-52
2021/07/16 06:16:05;;;;;;;;;;;19.90;99.90;;;;;;5061828;28;19970;-50
2021/07/16 06:18:31;;;;;;;;;;;19.90;99.90;;;;;;5070522;28;19912;-52
2021/07/16 06:20:56;;;;;;;;;;;20.00;99.90;;;;;;5070074;28;19916;-48
2021/07/16 06:23:23;;;;;;;;;;;20.10;99.90;;;;;;5062872;28;19912;-50
2021/07/16 06:25:49;;;;;;;;;;;20.10;99.90;;;;;;5070336;28;19912;-48
2021/07/16 06:28:14;;;;;;;;;;;20.10;99.90;;;;;;5070584;28;19962;-48
2021/07/16 06:30:40;;;;;;;;;;;20.30;99.90;;;;;;5070220;28;19908;-50
2021/07/16 06:33:05;;;;;;;;;;;20.40;99.90;;;;;;5069737;28;19916;-54
2021/07/16 06:35:31;;;;;;;;;;;20.30;99.90;;;;;;5063640;28;19956;-49
2021/07/16 06:37:56;;;;;;;;;;;20.20;99.90;;;;;;5070580;28;19909;-52
2021/07/16 06:40:22;;;;;;;;;;;20.10;99.90;;;;;;5063019;28;19908;-54
2021/07/16 06:42:47;;;;;;;;;;;20.20;99.90;;;;;;5070080;28;19964;-53
2021/07/16 06:45:14;;;;;;;;;;;20.30;99.90;;;;;;5069138;28;20221;-49
2021/07/16 06:47:40;;;;;;;;;;;20.40;99.90;;;;;;5070309;28;20091;-50
2021/07/16 06:50:06;;;;;;;;;;;20.50;99.90;;;;;;5070124;28;19962;-53
2021/07/16 06:52:33;;;;;;;;;;;20.40;99.90;;;;;;5068745;28;20362;-48
2021/07/16 06:54:59;;;;;;;;;;;20.40;99.90;;;;;;5069975;28;19999;-55
2021/07/16 06:57:24;;;;;;;;;;;20.30;99.90;;;;;;5062885;28;20012;-50
2021/07/16 06:59:50;;;;;;;;;;;20.30;99.90;;;;;;5070199;28;19944;-56
2021/07/16 07:02:15;;;;;;;;;;;20.50;99.90;;;;;;5069789;28;20385;-54
2021/07/16 07:04:41;;;;;;;;;;;20.70;99.90;;;;;;5070169;28;19912;-50
2021/07/16 07:07:06;;;;;;;;;;;20.80;99.90;;;;;;5068695;28;19983;-52
2021/07/16 07:09:32;;;;;;;;;;;21.00;99.90;;;;;;5070014;28;19922;-48
2021/07/16 07:11:57;;;;;;;;;;;21.00;99.90;;;;;;5067109;28;19995;-51
2021/07/16 07:14:23;;;;;;;;;;;21.00;99.90;;;;;;5069643;28;19908;-50
2021/07/16 07:16:48;;;;;;;;;;;21.10;99.90;;;;;;5069792;28;19909;-51
2021/07/16 07:19:14;;;;;;;;;;;21.40;99.90;;;;;;5068535;28;19966;-49
2021/07/16 07:21:39;;;;;;;;;;;21.60;99.90;;;;;;5089409;22;19932;-58
2021/07/16 07:24:04;;;;;;;;;;;21.90;99.90;;;;;;5069310;28;20011;-56
2021/07/16 07:26:32;;;;;;;;;;;22.10;99.90;;;;;;5067619;28;20607;-56
2021/07/16 07:28:58;;;;;;;;;;;22.30;99.90;;;;;;5065974;28;19917;-58
2021/07/16 07:31:24;;;;;;;;;;;22.40;99.90;;;;;;5074515;28;20306;-57
2021/07/16 07:33:49;;;;;;;;;;;22.60;99.90;;;;;;5075143;28;19908;-57
2021/07/16 07:36:15;;;;;;;;;;;22.70;99.90;;;;;;5063157;28;19948;-57
2021/07/16 07:38:41;;;;;;;;;;;22.80;99.90;;;;;;5063640;28;19913;-55
2021/07/16 07:41:07;;;;;;;;;;;22.80;99.90;;;;;;5064758;28;19909;-58
2021/07/16 07:43:32;;;;;;;;;;;22.70;99.90;;;;;;5062406;28;19915;-58
2021/07/16 07:45:58;;;;;;;;;;;22.60;99.90;;;;;;5064437;28;19956;-57
2021/07/16 07:48:23;;;;;;;;;;;22.50;99.90;;;;;;5074413;28;19927;-54
2021/07/16 07:50:49;;;;;;;;;;;22.60;99.90;;;;;;5072835;28;19916;-55
2021/07/16 07:53:14;;;;;;;;;;;22.70;99.90;;;;;;5070802;28;19950;-57
2021/07/16 07:55:40;;;;;;;;;;;22.60;99.90;;;;;;5061444;28;19915;-54
2021/07/16 07:58:05;;;;;;;;;;;22.70;99.90;;;;;;5064510;28;19915;-56
2021/07/16 08:00:31;;;;;;;;;;;22.80;99.90;;;;;;5062404;28;19909;-58
2021/07/16 08:02:56;;;;;;;;;;;23.00;99.90;;;;;;5063516;28;19922;-57
2021/07/16 08:05:22;;;;;;;;;;;23.10;99.90;;;;;;5063072;28;19916;-56
2021/07/16 08:07:48;;;;;;;;;;;23.10;99.90;;;;;;5062365;28;19908;-58
2021/07/16 08:10:15;;;;;;;;;;;23.30;99.90;;;;;;5063092;28;19940;-58
2021/07/16 08:12:41;;;;;;;;;;;23.50;99.90;;;;;;5062872;28;19921;-58
2021/07/16 08:15:07;;;;;;;;;;;23.60;99.90;;;;;;5063688;28;19915;-57
2021/07/16 08:17:33;;;;;;;;;;;23.60;99.90;;;;;;5060764;28;20268;-58
2021/07/16 08:19:58;;;;;;;;;;;23.50;99.90;;;;;;5063827;28;19963;-58
2021/07/16 08:22:24;;;;;;;;;;;23.50;99.90;;;;;;5073683;28;19916;-57
2021/07/16 08:24:49;;;;;;;;;;;23.50;99.90;;;;;;5074402;28;19909;-57
2021/07/16 08:27:15;;;;;;;;;;;23.50;99.90;;;;;;5063219;28;19919;-58
2021/07/16 08:29:40;;;;;;;;;;;23.50;99.90;;;;;;5062483;28;19919;-57
2021/07/16 08:32:06;;;;;;;;;;;23.60;99.90;;;;;;5062670;28;19915;-57
2021/07/16 08:34:32;;;;;;;;;;;23.50;99.90;;;;;;5061775;28;20333;-57
2021/07/16 08:36:57;;;;;;;;;;;23.50;99.90;;;;;;5061823;28;20449;-58
2021/07/16 08:39:23;;;;;;;;;;;23.60;99.90;;;;;;5063253;28;19962;-58
2021/07/16 08:41:50;;;;;;;;;;;23.70;99.90;;;;;;5062023;28;20448;-57
2021/07/16 08:44:15;;;;;;;;;;;23.80;99.90;;;;;;5063433;28;20303;-57
2021/07/16 08:46:43;;;;;;;;;;;24.10;99.90;;;;;;5062604;28;19909;-58
2021/07/16 08:49:09;;;;;;;;;;;24.40;99.90;;;;;;5062754;28;19920;-58
2021/07/16 08:51:35;;;;;;;;;;;24.70;99.90;;;;;;5062405;28;20343;-58
2021/07/16 08:54:00;;;;;;;;;;;24.90;99.90;;;;;;5063406;28;19920;-55
2021/07/16 08:56:28;;;;;;;;;;;24.90;99.90;;;;;;5067999;28;19916;-57
2021/07/16 08:58:53;;;;;;;;;;;24.90;99.90;;;;;;5062389;28;19963;-57
2021/07/16 09:01:19;;;;;;;;;;;24.90;99.90;;;;;;5068857;28;19938;-58
2021/07/16 09:03:58;;;;;;;;;;;25.10;99.90;;;;;;5062489;28;19928;-58
2021/07/16 09:06:42;;;;;;;;;;;24.90;99.90;;;;;;5060318;28;19967;-55
2021/07/16 09:09:08;;;;;;;;;;;24.90;99.90;;;;;;5064445;28;19971;-56
2021/07/16 09:11:37;;;;;;;;;;;25.20;99.90;;;;;;5073407;28;19920;-55
2021/07/16 09:14:03;;;;;;;;;;;25.30;99.90;;;;;;5059186;28;19962;-55
2021/07/16 09:16:28;;;;;;;;;;;25.40;99.90;;;;;;5062589;28;20320;-57
2021/07/16 09:18:57;;;;;;;;;;;25.00;99.90;;;;;;5064411;28;19948;-57
2021/07/16 09:21:23;;;;;;;;;;;25.40;99.90;;;;;;5073176;28;19972;-57
2021/07/16 09:23:48;;;;;;;;;;;25.60;99.90;;;;;;5073969;28;20367;-56
2021/07/16 09:26:15;;;;;;;;;;;25.70;99.90;;;;;;5070116;28;19916;-56
2021/07/16 09:28:42;;;;;;;;;;;25.80;99.90;;;;;;5061865;28;19908;-53
2021/07/16 09:31:15;;;;;;;;;;;25.80;99.90;;;;;;5062831;28;20281;-57
2021/07/16 09:33:41;;;;;;;;;;;26.00;99.90;;;;;;5061068;28;19986;-57
2021/07/16 09:36:07;;;;;;;;;;;26.30;99.90;;;;;;5069280;28;20503;-57
2021/07/16 09:38:34;;;;;;;;;;;26.50;99.90;;;;;;5061926;28;19974;-60
2021/07/16 09:41:03;;;;;;;;;;;26.70;99.90;;;;;;5069235;28;19908;-57
2021/07/16 09:43:30;;;;;;;;;;;26.70;99.90;;;;;;5060963;28;19986;-56
2021/07/16 09:46:01;;;;;;;;;;;26.50;99.90;;;;;;5061925;28;19970;-56
2021/07/16 09:48:34;;;;;;;;;;;26.70;99.90;;;;;;5061412;28;19917;-58
2021/07/16 09:51:18;;;;;;;;;;;26.80;99.90;;;;;;5061193;28;19987;-57
2021/07/16 09:53:43;;;;;;;;;;;27.10;99.90;;;;;;5061801;28;19909;-56
2021/07/16 09:56:10;;;;;;;;;;;27.20;99.90;;;;;;5062865;28;19916;-54
2021/07/16 09:58:36;;;;;;;;;;;27.10;99.90;;;;;;5061386;28;19959;-58
2021/07/16 10:01:02;;;;;;;;;;;27.30;99.90;;;;;;5062052;28;19908;-57
2021/07/16 10:03:28;;;;;;;;;;;27.40;99.90;;;;;;5060613;28;19971;-57
2021/07/16 10:05:54;;;;;;;;;;;27.60;99.90;;;;;;5061971;28;19909;-57
2021/07/16 10:08:20;;;;;;;;;;;27.60;99.90;;;;;;5061111;28;19913;-55
2021/07/16 10:10:46;;;;;;;;;;;27.60;99.90;;;;;;5060685;28;20492;-58
2021/07/16 10:13:12;;;;;;;;;;;27.80;99.90;;;;;;5062325;28;19955;-56
2021/07/16 10:15:40;;;;;;;;;;;27.80;99.90;;;;;;5066651;28;19992;-57
2021/07/16 10:18:07;;;;;;;;;;;27.50;99.90;;;;;;5062482;28;19956;-54
2021/07/16 10:20:34;;;;;;;;;;;27.30;99.90;;;;;;5067193;28;19908;-57
2021/07/16 10:22:59;;;;;;;;;;;27.30;99.90;;;;;;5071900;28;20392;-57
2021/07/16 10:25:26;;;;;;;;;;;27.30;99.90;;;;;;5071387;28;19961;-55
2021/07/16 10:27:52;;;;;;;;;;;27.20;99.90;;;;;;5063117;28;19912;-58
2021/07/16 10:30:18;;;;;;;;;;;27.30;99.90;;;;;;5063523;28;19916;-58
2021/07/16 10:32:45;;;;;;;;;;;27.00;99.90;;;;;;5064140;28;19915;-59
2021/07/16 10:35:13;;;;;;;;;;;26.90;99.90;;;;;;5062918;28;19917;-61
2021/07/16 10:37:39;;;;;;;;;;;27.20;99.90;;;;;;5072881;28;19987;-57
2021/07/16 10:40:05;;;;;;;;;;;27.40;99.90;;;;;;5058790;28;19947;-59
2021/07/16 10:42:30;;;;;;;;;;;27.60;99.90;;;;;;5064568;28;19923;-58
2021/07/16 10:44:58;;;;;;;;;;;27.60;99.90;;;;;;5064358;28;19912;-59
2021/07/16 10:47:34;;;;;;;;;;;27.70;99.90;;;;;;5064498;28;19976;-57
2021/07/16 10:49:59;;;;;;;;;;;27.80;99.90;;;;;;5055929;28;20375;-59
2021/07/16 10:52:40;;;;;;;;;;;27.70;99.90;;;;;;5063418;28;19917;-59
2021/07/16 10:55:05;;;;;;;;;;;27.60;99.90;;;;;;5069491;28;19913;-57
2021/07/16 10:57:38;;;;;;;;;;;27.70;99.90;;;;;;5059317;28;19912;-57
2021/07/16 11:00:04;;;;;;;;;;;27.90;99.90;;;;;;5070078;28;19966;-56
2021/07/16 11:02:41;;;;;;;;;;;27.90;99.90;;;;;;5058123;28;20383;-57
2021/07/16 11:05:26;;;;;;;;;;;28.10;99.90;;;;;;5070043;28;19908;-57
2021/07/16 11:07:51;;;;;;;;;;;28.00;99.90;;;;;;5059715;28;19920;-57
2021/07/16 11:10:35;;;;;;;;;;;27.70;99.90;;;;;;5058374;28;20339;-58
2021/07/16 11:13:19;;;;;;;;;;;27.70;99.90;;;;;;5062803;28;20401;-56
2021/07/16 11:15:45;;;;;;;;;;;27.70;99.90;;;;;;5061102;28;19916;-59
2021/07/16 11:18:24;;;;;;;;;;;27.90;99.90;;;;;;5062051;28;19912;-58
2021/07/16 11:20:49;;;;;;;;;;;28.00;99.90;;;;;;5069205;28;19923;-59
2021/07/16 11:23:16;;;;;;;;;;;28.10;99.90;;;;;;5066774;28;19924;-58
2021/07/16 11:25:42;;;;;;;;;;;28.20;99.90;;;;;;5068302;28;19915;-57
2021/07/16 11:28:08;;;;;;;;;;;28.30;99.90;;;;;;5058986;28;19952;-60
2021/07/16 11:30:34;;;;;;;;;;;28.50;99.90;;;;;;5065264;28;20011;-59
2021/07/16 11:33:00;;;;;;;;;;;28.70;99.90;;;;;;5064294;28;20295;-59
2021/07/16 11:35:26;;;;;;;;;;;28.50;99.90;;;;;;5063566;28;20390;-58
2021/07/16 11:37:52;;;;;;;;;;;28.60;99.90;;;;;;5071988;28;19909;-58
2021/07/16 11:40:19;;;;;;;;;;;28.70;99.90;;;;;;5057059;28;20309;-59
2021/07/16 11:42:49;;;;;;;;;;;28.80;99.90;;;;;;5071327;28;19912;-59
2021/07/16 11:45:22;;;;;;;;;;;28.90;99.90;;;;;;5063641;28;19909;-59
2021/07/16 11:47:48;;;;;;;;;;;29.00;99.90;;;;;;5066987;28;19944;-59
2021/07/16 11:50:17;;;;;;;;;;;29.00;99.90;;;;;;5062838;28;20386;-58
2021/07/16 11:52:47;;;;;;;;;;;29.00;99.90;;;;;;5062536;28;19981;-58
2021/07/16 11:55:16;;;;;;;;;;;29.10;99.90;;;;;;5059335;28;19963;-58
2021/07/16 11:58:01;;;;;;;;;;;29.10;99.90;;;;;;5060511;28;19908;-59
2021/07/16 12:00:32;;;;;;;;;;;29.10;99.90;;;;;;5059129;28;19909;-59
2021/07/16 12:03:01;;;;;;;;;;;29.10;99.90;;;;;;5060979;28;19916;-59
2021/07/16 12:05:26;;;;;;;;;;;29.20;99.90;;;;;;5065117;28;19909;-59
2021/07/16 12:07:52;;;;;;;;;;;28.90;99.90;;;;;;5058927;28;20332;-58
2021/07/16 12:10:19;;;;;;;;;;;28.80;99.90;;;;;;5058566;28;19909;-58
2021/07/16 12:12:45;;;;;;;;;;;28.90;99.90;;;;;;5062244;28;19913;-58
2021/07/16 12:15:15;;;;;;;;;;;29.00;99.90;;;;;;5070581;28;20365;-57
2021/07/16 12:17:41;;;;;;;;;;;28.90;99.90;;;;;;5062074;28;20389;-57
2021/07/16 12:20:09;;;;;;;;;;;29.00;99.90;;;;;;5073610;28;19912;-57
2021/07/16 12:22:35;;;;;;;;;;;28.90;99.90;;;;;;5074011;28;19921;-58
2021/07/16 12:25:01;;;;;;;;;;;28.90;99.90;;;;;;5071770;28;19957;-57
2021/07/16 12:27:27;;;;;;;;;;;29.00;99.90;;;;;;5068492;28;19915;-56
2021/07/16 12:29:57;;;;;;;;;;;29.00;99.90;;;;;;5060817;28;19996;-57
2021/07/16 12:32:41;;;;;;;;;;;28.90;99.90;;;;;;5071902;28;20371;-56
2021/07/16 12:35:19;;;;;;;;;;;29.20;99.90;;;;;;5064442;28;19963;-59
2021/07/16 12:37:46;;;;;;;;;;;29.50;99.90;;;;;;5069982;28;19912;-58
2021/07/16 12:40:14;;;;;;;;;;;29.40;99.90;;;;;;5059870;28;19909;-60
2021/07/16 12:42:40;;;;;;;;;;;29.30;99.90;;;;;;5073678;28;19982;-59
2021/07/16 12:45:12;;;;;;;;;;;29.50;99.90;;;;;;5058752;28;19909;-58
2021/07/16 12:47:47;;;;;;;;;;;29.60;99.90;;;;;;5066065;28;19908;-59
2021/07/16 12:50:14;;;;;;;;;;;29.70;99.90;;;;;;5065522;28;19909;-58
2021/07/16 12:52:40;;;;;;;;;;;29.50;99.90;;;;;;5065621;28;19909;-58
2021/07/16 12:55:12;;;;;;;;;;;29.60;99.90;;;;;;5064110;28;20393;-58
2021/07/16 12:57:38;;;;;;;;;;;29.70;99.90;;;;;;5063291;28;19954;-57
2021/07/16 13:00:13;;;;;;;;;;;29.70;99.90;;;;;;5064152;28;19912;-57
2021/07/16 13:02:38;;;;;;;;;;;29.40;99.90;;;;;;5061961;28;19912;-58
2021/07/16 13:05:04;;;;;;;;;;;29.50;99.90;;;;;;5064394;28;19954;-59
2021/07/16 13:07:30;;;;;;;;;;;29.80;99.90;;;;;;5060640;28;19935;-60
2021/07/16 13:09:55;;;;;;;;;;;29.80;99.90;;;;;;5066029;28;19908;-60
2021/07/16 13:12:29;;;;;;;;;;;29.90;99.90;;;;;;5063368;28;19909;-60
2021/07/16 13:14:57;;;;;;;;;;;30.00;99.90;;;;;;5065228;28;19909;-62
2021/07/16 13:17:27;;;;;;;;;;;30.10;99.90;;;;;;5061828;28;20023;-60
2021/07/16 13:19:56;;;;;;;;;;;30.00;99.90;;;;;;5064360;28;19961;-60
2021/07/16 13:22:22;;;;;;;;;;;30.20;99.90;;;;;;5104996;22;20023;-52
2021/07/16 13:24:48;;;;;;;;;;;30.00;99.90;;;;;;5064513;28;19912;-54
2021/07/16 13:27:14;;;;;;;;;;;29.90;99.90;;;;;;5088414;28;19908;-52
2021/07/16 13:29:40;;;;;;;;;;;29.90;99.90;;;;;;5080402;28;20391;-48
2021/07/16 13:32:05;;;;;;;;;;;30.00;99.90;;;;;;5082438;28;20356;-53
2021/07/16 13:34:31;;;;;;;;;;;30.00;99.90;;;;;;5072789;28;19952;-54
2021/07/16 13:36:56;;;;;;;;;;;29.50;99.90;;;;;;5091733;28;19904;-52
2021/07/16 13:39:22;;;;;;;;;;;29.40;99.90;;;;;;5091733;28;20388;-52
2021/07/16 13:41:47;;;;;;;;;;;29.50;99.90;;;;;;5091561;28;19965;-57
2021/07/16 13:44:13;;;;;;;;;;;29.60;99.90;;;;;;5091376;28;19940;-54
2021/07/16 13:46:38;;;;;;;;;;;29.70;99.90;;;;;;5091431;28;19908;-52
2021/07/16 13:49:04;;;;;;;;;;;29.80;99.90;;;;;;5091573;28;19909;-54
2021/07/16 13:51:32;;;;;;;;;;;29.80;99.90;;;;;;5091669;28;19915;-55
2021/07/16 13:53:57;;;;;;;;;;;29.70;99.90;;;;;;5073017;28;19909;-56
2021/07/16 13:56:23;;;;;;;;;;;29.60;99.90;;;;;;5091235;28;20005;-54
2021/07/16 13:58:48;;;;;;;;;;;29.70;99.90;;;;;;5073313;28;20382;-50
2021/07/16 14:01:15;;;;;;;;;;;29.70;99.90;;;;;;5072977;28;19969;-53
2021/07/16 14:03:40;;;;;;;;;;;29.60;99.90;;;;;;5091202;28;19908;-55
2021/07/16 14:06:06;;;;;;;;;;;29.70;99.90;;;;;;5090658;28;19939;-52
2021/07/16 14:08:31;;;;;;;;;;;29.70;99.90;;;;;;5091203;28;19944;-53
2021/07/16 14:10:56;;;;;;;;;;;29.70;99.90;;;;;;5090855;28;19958;-55
2021/07/16 14:13:22;;;;;;;;;;;29.70;99.90;;;;;;5072756;28;19915;-54